createdAt,value
2022-08-01T00:00:53.691Z,20.93
2022-08-01T00:03:21.468Z,20.80
2022-08-01T00:05:49.973Z,20.92
2022-08-01T00:08:17.776Z,20.82
2022-08-01T00:10:45.847Z,20.72
2022-08-01T00:13:15.220Z,20.85
2022-08-01T00:15:44.371Z,20.85
2022-08-01T00:18:22.464Z,20.89
2022-08-01T00:20:50.335Z,20.86
2022-08-01T00:23:18.125Z,20.87
2022-08-01T00:25:45.919Z,20.69
2022-08-01T00:28:15.168Z,20.63
2022-08-01T00:30:43.010Z,20.42
2022-08-01T00:33:10.910Z,20.25
2022-08-01T00:35:38.743Z,20.07
2022-08-01T00:38:06.686Z,20.01
2022-08-01T00:40:34.632Z,20.14
2022-08-01T00:43:02.650Z,20.11
2022-08-01T00:45:31.859Z,20.14
2022-08-01T00:47:59.740Z,20.08
2022-08-01T00:50:28.003Z,20.03
2022-08-01T00:52:56.881Z,20.05
2022-08-01T00:55:24.984Z,19.94
2022-08-01T00:58:02.466Z,19.94
2022-08-01T01:00:34.516Z,20.04
2022-08-01T01:03:23.585Z,20.03
2022-08-01T01:06:07.345Z,20.12
2022-08-01T01:08:54.352Z,20.08
2022-08-01T01:11:27.906Z,20.03
2022-08-01T01:14:01.588Z,20.01
2022-08-01T01:16:34.432Z,20.01
2022-08-01T01:19:04.689Z,19.90
2022-08-01T01:21:49.762Z,19.88
2022-08-01T01:24:27.972Z,19.83
2022-08-01T01:27:03.472Z,19.85
2022-08-01T01:29:59.822Z,19.97
2022-08-01T01:32:31.147Z,20.21
2022-08-01T01:35:02.157Z,20.28
2022-08-01T01:37:34.063Z,20.55
2022-08-01T01:40:03.755Z,20.36
2022-08-01T01:42:33.980Z,20.52
2022-08-01T01:45:06.404Z,20.46
2022-08-01T01:47:35.244Z,20.21
2022-08-01T01:50:05.179Z,20.25
2022-08-01T01:52:33.989Z,20.21
2022-08-01T01:55:06.553Z,20.17
2022-08-01T01:57:37.711Z,19.98
2022-08-01T02:00:08.980Z,19.97
2022-08-01T02:02:38.862Z,20.04
2022-08-01T02:05:08.411Z,20.07
2022-08-01T02:07:37.645Z,20.10
2022-08-01T02:10:07.205Z,20.35
2022-08-01T02:12:39.076Z,20.29
2022-08-01T02:15:10.454Z,20.32
2022-08-01T02:17:41.976Z,20.28
2022-08-01T02:20:11.111Z,20.26
2022-08-01T02:22:42.033Z,20.20
2022-08-01T02:25:18.667Z,20.15
2022-08-01T02:27:54.106Z,20.28
2022-08-01T02:30:26.385Z,20.38
2022-08-01T02:33:02.863Z,20.52
2022-08-01T02:35:33.934Z,20.53
2022-08-01T02:38:03.985Z,20.61
2022-08-01T02:40:34.695Z,20.53
2022-08-01T02:43:05.318Z,20.57
2022-08-01T02:45:37.338Z,20.71
2022-08-01T02:48:10.095Z,20.77
2022-08-01T02:50:38.307Z,20.62
2022-08-01T02:53:11.191Z,20.51
2022-08-01T02:55:41.593Z,20.29
2022-08-01T02:58:12.132Z,20.12
2022-08-01T03:00:44.312Z,20.15
2022-08-01T03:03:18.511Z,20.14
2022-08-01T03:05:47.529Z,20.14
2022-08-01T03:08:15.911Z,20.08
2022-08-01T03:10:46.416Z,20.12
2022-08-01T03:13:16.544Z,20.38
2022-08-01T03:15:46.530Z,20.46
2022-08-01T03:18:16.486Z,20.46
2022-08-01T03:20:45.177Z,20.57
2022-08-01T03:23:14.530Z,20.56
2022-08-01T03:25:45.163Z,20.52
2022-08-01T03:28:16.048Z,20.49
2022-08-01T03:30:46.387Z,20.25
2022-08-01T03:33:14.528Z,20.22
2022-08-01T03:35:48.868Z,20.31
2022-08-01T03:38:21.170Z,20.31
2022-08-01T03:40:54.061Z,20.42
2022-08-01T03:43:28.789Z,20.29
2022-08-01T03:46:04.233Z,20.35
2022-08-01T03:48:35.133Z,20.34
2022-08-01T03:51:04.126Z,20.28
2022-08-01T03:53:35.430Z,20.28
2022-08-01T03:56:05.490Z,20.20
2022-08-01T03:58:33.448Z,20.10
2022-08-01T04:01:03.449Z,20.10
2022-08-01T04:03:32.091Z,20.14
2022-08-01T04:06:11.372Z,20.14
2022-08-01T04:08:40.048Z,20.05
2022-08-01T04:11:10.261Z,20.11
2022-08-01T04:13:38.476Z,20.20
2022-08-01T04:16:08.713Z,20.36
2022-08-01T04:18:36.573Z,20.57
2022-08-01T04:21:04.559Z,20.71
2022-08-01T04:23:33.506Z,20.63
2022-08-01T04:26:05.020Z,20.71
2022-08-01T04:28:35.583Z,20.62
2022-08-01T04:31:05.716Z,20.62
2022-08-01T04:33:37.437Z,20.75
2022-08-01T04:36:08.472Z,21.00
2022-08-01T04:38:38.009Z,21.11
2022-08-01T04:41:09.483Z,21.11
2022-08-01T04:43:38.437Z,21.02
2022-08-01T04:46:08.343Z,20.68
2022-08-01T04:48:39.907Z,20.55
2022-08-01T04:51:16.073Z,20.62
2022-08-01T04:53:43.985Z,20.73
2022-08-01T04:56:14.068Z,20.79
2022-08-01T04:58:42.346Z,21.06
2022-08-01T05:01:10.575Z,21.08
2022-08-01T05:03:39.829Z,21.16
2022-08-01T05:06:07.881Z,21.17
2022-08-01T05:08:37.029Z,21.08
2022-08-01T05:11:05.015Z,21.07
2022-08-01T05:13:32.873Z,20.99
2022-08-01T05:16:00.912Z,20.99
2022-08-01T05:18:28.887Z,20.92
2022-08-01T05:20:58.109Z,21.02
2022-08-01T05:23:42.161Z,21.13
2022-08-01T05:26:13.888Z,21.04
2022-08-01T05:28:42.898Z,20.92
2022-08-01T05:31:10.917Z,20.86
2022-08-01T05:33:38.764Z,20.80
2022-08-01T05:36:08.317Z,20.72
2022-08-01T05:38:36.172Z,20.76
2022-08-01T05:41:03.989Z,20.83
2022-08-01T05:43:32.055Z,20.89
2022-08-01T05:46:00.326Z,21.06
2022-08-01T05:48:28.183Z,21.02
2022-08-01T05:50:58.588Z,21.07
2022-08-01T05:53:28.166Z,21.13
2022-08-01T05:55:56.208Z,21.30
2022-08-01T05:58:24.387Z,21.37
2022-08-01T06:00:52.200Z,21.38
2022-08-01T06:03:20.684Z,21.37
2022-08-01T06:05:48.505Z,21.45
2022-08-01T06:08:16.386Z,21.40
2022-08-01T06:10:45.547Z,21.27
2022-08-01T06:13:13.413Z,21.40
2022-08-01T06:15:41.389Z,21.31
2022-08-01T06:18:09.231Z,21.20
2022-08-01T06:20:37.077Z,21.19
2022-08-01T06:23:12.054Z,21.33
2022-08-01T06:25:55.674Z,21.37
2022-08-01T06:28:23.714Z,21.67
2022-08-01T06:30:51.568Z,21.64
2022-08-01T06:33:19.518Z,21.61
2022-08-01T06:35:47.405Z,21.54
2022-08-01T06:38:15.300Z,21.57
2022-08-01T06:40:43.218Z,21.59
2022-08-01T06:43:12.764Z,21.45
2022-08-01T06:45:41.198Z,21.38
2022-08-01T06:48:09.095Z,21.33
2022-08-01T06:50:37.786Z,21.40
2022-08-01T06:53:06.090Z,21.41
2022-08-01T06:55:33.967Z,21.53
2022-08-01T06:58:01.857Z,21.26
2022-08-01T07:00:31.164Z,21.41
2022-08-01T07:03:00.829Z,21.44
2022-08-01T07:05:31.876Z,21.37
2022-08-01T07:08:00.168Z,21.58
2022-08-01T07:10:28.064Z,21.73
2022-08-01T07:12:55.955Z,21.91
2022-08-01T07:15:27.382Z,22.04
2022-08-01T07:17:57.890Z,22.04
2022-08-01T07:20:25.751Z,21.75
2022-08-01T07:22:54.145Z,21.67
2022-08-01T07:25:24.581Z,21.59
2022-08-01T07:27:52.437Z,21.55
2022-08-01T07:30:20.357Z,21.54
2022-08-01T07:32:48.372Z,21.47
2022-08-01T07:35:17.572Z,21.59
2022-08-01T07:37:49.127Z,21.44
2022-08-01T07:40:19.178Z,21.34
2022-08-01T07:42:47.052Z,21.23
2022-08-01T07:45:15.282Z,21.27
2022-08-01T07:47:43.183Z,21.27
2022-08-01T07:50:11.485Z,21.30
2022-08-01T07:52:40.794Z,21.31
2022-08-01T07:55:10.073Z,21.28
2022-08-01T07:57:38.189Z,21.31
2022-08-01T08:00:07.586Z,21.50
2022-08-01T08:02:35.459Z,21.54
2022-08-01T08:05:04.772Z,21.57
2022-08-01T08:07:33.524Z,21.38
2022-08-01T08:10:02.896Z,21.37
2022-08-01T08:12:30.803Z,21.47
2022-08-01T08:14:59.361Z,21.45
2022-08-01T08:17:27.784Z,21.54
2022-08-01T08:19:55.872Z,21.57
2022-08-01T08:22:23.705Z,21.68
2022-08-01T08:24:51.589Z,21.89
2022-08-01T08:27:20.790Z,22.30
2022-08-01T08:29:48.621Z,22.64
2022-08-01T08:32:16.504Z,22.70
2022-08-01T08:34:44.703Z,22.87
2022-08-01T08:37:12.702Z,22.97
2022-08-01T08:39:41.622Z,22.78
2022-08-01T08:42:11.191Z,22.61
2022-08-01T08:44:43.531Z,22.68
2022-08-01T08:47:19.420Z,22.84
2022-08-01T08:49:50.246Z,23.01
2022-08-01T08:52:20.820Z,23.21
2022-08-01T08:54:50.864Z,23.25
2022-08-01T08:57:21.229Z,23.58
2022-08-01T08:59:52.761Z,23.37
2022-08-01T09:02:20.661Z,23.15
2022-08-01T09:04:50.033Z,23.24
2022-08-01T09:07:18.020Z,22.84
2022-08-01T09:09:45.855Z,22.59
2022-08-01T09:12:18.499Z,22.50
2022-08-01T09:14:47.712Z,22.45
2022-08-01T09:17:17.468Z,22.29
2022-08-01T09:19:48.525Z,22.25
2022-08-01T09:22:19.557Z,22.46
2022-08-01T09:25:00.694Z,22.74
2022-08-01T09:27:28.570Z,23.79
2022-08-01T09:30:01.244Z,24.44
2022-08-01T09:32:36.446Z,24.64
2022-08-01T09:35:30.358Z,26.11
2022-08-01T09:38:16.646Z,26.95
2022-08-01T09:40:49.794Z,26.56
2022-08-01T09:43:19.072Z,26.44
2022-08-01T09:45:50.913Z,27.33
2022-08-01T09:48:28.407Z,28.39
2022-08-01T09:51:01.254Z,28.74
2022-08-01T09:53:50.930Z,27.76
2022-08-01T09:56:19.575Z,27.67
2022-08-01T09:59:00.048Z,26.88
2022-08-01T10:01:37.360Z,26.38
2022-08-01T10:04:13.576Z,26.83
2022-08-01T10:06:45.840Z,27.22
2022-08-01T10:09:16.086Z,27.29
2022-08-01T10:11:45.344Z,27.12
2022-08-01T10:14:18.186Z,27.72
2022-08-01T10:16:53.638Z,28.90
2022-08-01T10:19:28.707Z,30.16
2022-08-01T10:22:00.080Z,30.68
2022-08-01T10:24:30.621Z,30.24
2022-08-01T10:27:06.009Z,30.44
2022-08-01T10:30:00.148Z,30.22
2022-08-01T10:32:31.010Z,30.37
2022-08-01T10:35:06.342Z,30.53
2022-08-01T10:37:51.666Z,30.60
2022-08-01T10:40:30.374Z,30.39
2022-08-01T10:42:59.114Z,30.98
2022-08-01T10:45:30.250Z,30.78
2022-08-01T10:48:06.109Z,29.14
2022-08-01T10:50:39.425Z,28.18
2022-08-01T10:53:23.186Z,27.55
2022-08-01T10:56:02.519Z,27.00
2022-08-01T10:58:39.392Z,27.12
2022-08-01T11:01:23.607Z,28.04
2022-08-01T11:04:17.642Z,29.30
2022-08-01T11:07:04.549Z,29.54
2022-08-01T11:09:40.840Z,30.44
2022-08-01T11:12:13.696Z,30.74
2022-08-01T11:15:29.779Z,30.65
2022-08-01T11:18:02.394Z,30.98
2022-08-01T11:20:32.462Z,30.78
2022-08-01T11:23:35.980Z,30.22
2022-08-01T11:26:28.744Z,30.09
2022-08-01T11:29:21.460Z,29.93
2022-08-01T11:31:51.408Z,30.14
2022-08-01T11:34:19.799Z,29.81
2022-08-01T11:37:03.999Z,29.39
2022-08-01T11:39:38.313Z,28.80
2022-08-01T11:42:22.524Z,28.92
2022-08-01T11:44:52.168Z,29.30
2022-08-01T11:47:21.242Z,28.46
2022-08-01T11:49:55.846Z,28.76
2022-08-01T11:52:28.883Z,28.83
2022-08-01T11:55:00.212Z,28.59
2022-08-01T11:57:34.504Z,28.31
2022-08-01T12:00:08.777Z,27.98
2022-08-01T12:02:45.754Z,27.80
2022-08-01T12:05:16.034Z,29.38
2022-08-01T12:07:45.833Z,28.93
2022-08-01T12:10:17.551Z,28.79
2022-08-01T12:12:47.102Z,29.15
2022-08-01T12:15:15.765Z,29.72
2022-08-01T12:17:45.792Z,29.34
2022-08-01T12:20:30.033Z,29.98
2022-08-01T12:22:59.673Z,30.73
2022-08-01T12:25:28.826Z,30.24
2022-08-01T12:27:57.893Z,30.14
2022-08-01T12:30:26.120Z,29.85
2022-08-01T12:32:55.436Z,29.92
2022-08-01T12:35:25.646Z,29.28
2022-08-01T12:37:55.040Z,29.68
2022-08-01T12:40:24.351Z,29.62
2022-08-01T12:42:55.507Z,29.85
2022-08-01T12:45:26.466Z,30.05
2022-08-01T12:47:58.542Z,29.64
2022-08-01T12:50:29.347Z,29.27
2022-08-01T12:52:58.444Z,29.23
2022-08-01T12:55:34.046Z,29.27
2022-08-01T12:58:12.607Z,29.14
2022-08-01T13:00:45.623Z,28.92
2022-08-01T13:03:16.446Z,28.96
2022-08-01T13:05:46.545Z,28.83
2022-08-01T13:08:15.199Z,28.42
2022-08-01T13:10:43.633Z,28.72
2022-08-01T13:13:27.957Z,29.10
2022-08-01T13:16:06.206Z,29.47
2022-08-01T13:18:36.088Z,29.42
2022-08-01T13:21:12.152Z,29.17
2022-08-01T13:24:01.781Z,29.07
2022-08-01T13:26:40.676Z,29.35
2022-08-01T13:29:10.739Z,29.38
2022-08-01T13:31:40.050Z,29.39
2022-08-01T13:34:08.051Z,29.35
2022-08-01T13:36:36.366Z,29.25
2022-08-01T13:39:23.305Z,29.32
2022-08-01T13:41:51.472Z,28.93
2022-08-01T13:44:20.711Z,28.64
2022-08-01T13:46:51.528Z,28.66
2022-08-01T13:49:20.257Z,28.80
2022-08-01T13:51:48.090Z,28.46
2022-08-01T13:54:16.064Z,28.11
2022-08-01T13:56:44.173Z,28.04
2022-08-01T13:59:11.924Z,28.26
2022-08-01T14:01:41.374Z,28.02
2022-08-01T14:04:09.281Z,27.76
2022-08-01T14:06:37.215Z,28.08
2022-08-01T14:09:17.771Z,28.51
2022-08-01T14:11:46.228Z,28.90
2022-08-01T14:14:14.463Z,29.15
2022-08-01T14:16:45.723Z,28.94
2022-08-01T14:19:14.015Z,28.42
2022-08-01T14:21:41.924Z,28.62
2022-08-01T14:24:10.662Z,28.77
2022-08-01T14:26:38.344Z,28.52
2022-08-01T14:29:06.215Z,28.06
2022-08-01T14:31:34.671Z,27.71
2022-08-01T14:34:04.567Z,27.77
2022-08-01T14:36:38.441Z,27.94
2022-08-01T14:39:07.225Z,27.40
2022-08-01T14:41:42.758Z,26.83
2022-08-01T14:44:10.781Z,26.76
2022-08-01T14:46:38.559Z,26.83
2022-08-01T14:49:26.813Z,26.61
2022-08-01T14:51:54.737Z,26.62
2022-08-01T14:54:26.760Z,26.80
2022-08-01T14:56:57.442Z,26.92
2022-08-01T14:59:25.257Z,26.92
2022-08-01T15:01:53.025Z,27.23
2022-08-01T15:04:20.847Z,27.22
2022-08-01T15:06:50.117Z,27.06
2022-08-01T15:09:17.959Z,26.95
2022-08-01T15:11:47.851Z,27.07
2022-08-01T15:14:33.263Z,27.04
2022-08-01T15:17:01.082Z,27.06
2022-08-01T15:19:28.966Z,26.99
2022-08-01T15:21:58.203Z,26.93
2022-08-01T15:24:29.468Z,26.78
2022-08-01T15:26:57.307Z,26.56
2022-08-01T15:29:25.177Z,26.42
2022-08-01T15:31:53.012Z,26.41
2022-08-01T15:34:20.956Z,26.31
2022-08-01T15:36:48.790Z,26.42
2022-08-01T15:39:18.816Z,26.45
2022-08-01T15:41:46.635Z,26.69
2022-08-01T15:44:14.708Z,26.53
2022-08-01T15:46:42.550Z,26.53
2022-08-01T15:49:11.635Z,26.69
2022-08-01T15:51:39.491Z,26.67
2022-08-01T15:54:10.243Z,26.62
2022-08-01T15:56:43.604Z,26.51
2022-08-01T15:59:11.892Z,26.58
2022-08-01T16:01:40.322Z,26.56
2022-08-01T16:04:08.672Z,26.45
2022-08-01T16:06:37.221Z,26.10
2022-08-01T16:09:05.851Z,25.90
2022-08-01T16:11:33.690Z,25.86
2022-08-01T16:14:02.947Z,25.66
2022-08-01T16:16:30.757Z,25.58
2022-08-01T16:18:58.571Z,25.62
2022-08-01T16:21:26.385Z,25.45
2022-08-01T16:23:54.279Z,25.63
2022-08-01T16:26:27.314Z,25.23
2022-08-01T16:28:56.339Z,25.46
2022-08-01T16:31:43.837Z,25.67
2022-08-01T16:34:15.236Z,25.77
2022-08-01T16:36:43.112Z,25.63
2022-08-01T16:39:11.439Z,25.70
2022-08-01T16:41:39.482Z,25.70
2022-08-01T16:44:07.298Z,25.74
2022-08-01T16:46:36.511Z,25.81
2022-08-01T16:49:06.495Z,25.83
2022-08-01T16:51:40.746Z,25.91
2022-08-01T16:54:25.596Z,25.79
2022-08-01T16:56:54.317Z,25.87
2022-08-01T16:59:22.181Z,25.66
2022-08-01T17:01:57.993Z,25.69
2022-08-01T17:04:30.066Z,25.67
2022-08-01T17:06:58.716Z,25.67
2022-08-01T17:09:26.810Z,25.47
2022-08-01T17:11:54.655Z,25.30
2022-08-01T17:14:22.551Z,25.39
2022-08-01T17:16:51.721Z,25.50
2022-08-01T17:19:19.594Z,25.43
2022-08-01T17:21:54.729Z,25.47
2022-08-01T17:24:22.550Z,25.35
2022-08-01T17:26:50.381Z,25.11
2022-08-01T17:29:18.412Z,24.60
2022-08-01T17:31:46.208Z,24.48
2022-08-01T17:34:15.482Z,24.40
2022-08-01T17:36:43.335Z,24.41
2022-08-01T17:39:13.361Z,24.27
2022-08-01T17:41:42.034Z,24.26
2022-08-01T17:44:11.377Z,24.14
2022-08-01T17:46:39.193Z,23.73
2022-08-01T17:49:07.043Z,23.66
2022-08-01T17:51:36.312Z,23.86
2022-08-01T17:54:04.278Z,23.85
2022-08-01T17:56:36.260Z,23.62
2022-08-01T17:59:06.493Z,23.51
2022-08-01T18:01:35.760Z,23.42
2022-08-01T18:04:04.002Z,23.48
2022-08-01T18:06:31.907Z,23.39
2022-08-01T18:09:05.285Z,23.38
2022-08-01T18:11:37.813Z,23.10
2022-08-01T18:14:06.033Z,23.11
2022-08-01T18:16:33.964Z,23.12
2022-08-01T18:19:01.781Z,23.24
2022-08-01T18:21:32.067Z,23.17
2022-08-01T18:24:01.385Z,23.12
2022-08-01T18:26:30.654Z,23.05
2022-08-01T18:28:58.504Z,22.93
2022-08-01T18:31:26.463Z,22.87
2022-08-01T18:33:54.274Z,22.80
2022-08-01T18:36:31.661Z,22.76
2022-08-01T18:39:04.312Z,22.78
2022-08-01T18:41:34.127Z,22.74
2022-08-01T18:44:05.510Z,22.67
2022-08-01T18:46:38.164Z,22.64
2022-08-01T18:49:07.190Z,22.59
2022-08-01T18:51:38.892Z,22.46
2022-08-01T18:54:11.069Z,22.53
2022-08-01T18:56:40.315Z,22.45
2022-08-01T18:59:08.331Z,22.40
2022-08-01T19:01:36.468Z,22.22
2022-08-01T19:04:04.561Z,22.12
2022-08-01T19:06:32.530Z,21.92
2022-08-01T19:09:02.629Z,21.85
2022-08-01T19:11:31.809Z,21.89
2022-08-01T19:14:03.036Z,21.79
2022-08-01T19:16:31.236Z,21.79
2022-08-01T19:18:59.356Z,21.64
2022-08-01T19:21:27.459Z,21.59
2022-08-01T19:24:12.943Z,21.54
2022-08-01T19:26:46.069Z,21.41
2022-08-01T19:29:18.386Z,21.43
2022-08-01T19:31:49.126Z,21.30
2022-08-01T19:34:19.023Z,21.37
2022-08-01T19:36:48.433Z,21.26
2022-08-01T19:39:21.430Z,21.17
2022-08-01T19:41:50.971Z,21.03
2022-08-01T19:44:22.630Z,21.02
2022-08-01T19:46:51.708Z,20.93
2022-08-01T19:49:21.459Z,20.82
2022-08-01T19:51:51.544Z,20.75
2022-08-01T19:54:22.753Z,20.62
2022-08-01T19:56:53.762Z,20.59
2022-08-01T19:59:24.527Z,20.51
2022-08-01T20:01:54.324Z,20.59
2022-08-01T20:04:22.538Z,20.46
2022-08-01T20:06:50.556Z,20.31
2022-08-01T20:09:18.499Z,20.26
2022-08-01T20:11:48.183Z,20.24
2022-08-01T20:14:19.496Z,20.12
2022-08-01T20:16:49.472Z,20.21
2022-08-01T20:19:18.562Z,20.11
2022-08-01T20:22:03.370Z,20.01
2022-08-01T20:24:39.440Z,20.01
2022-08-01T20:27:09.867Z,20.04
2022-08-01T20:29:39.007Z,20.12
2022-08-01T20:32:08.940Z,20.05
2022-08-01T20:34:38.535Z,20.03
2022-08-01T20:37:09.096Z,19.95
2022-08-01T20:39:43.377Z,19.88
2022-08-01T20:42:12.585Z,19.98
2022-08-01T20:44:41.074Z,20.03
2022-08-01T20:47:10.656Z,19.95
2022-08-01T20:49:38.867Z,19.84
2022-08-01T20:52:11.198Z,19.78
2022-08-01T20:54:40.430Z,19.80
2022-08-01T20:57:14.062Z,19.91
2022-08-01T20:59:55.459Z,19.81
2022-08-01T21:02:34.990Z,19.63
2022-08-01T21:05:05.507Z,19.74
2022-08-01T21:07:35.305Z,19.67
2022-08-01T21:10:07.836Z,19.30
2022-08-01T21:12:44.748Z,19.42
2022-08-01T21:15:20.168Z,19.57
2022-08-01T21:17:56.669Z,19.57
2022-08-01T21:20:28.894Z,19.52
2022-08-01T21:23:05.877Z,19.49
2022-08-01T21:25:35.439Z,19.40
2022-08-01T21:28:05.054Z,19.32
2022-08-01T21:30:36.432Z,19.26
2022-08-01T21:33:06.201Z,19.36
2022-08-01T21:35:34.608Z,19.23
2022-08-01T21:38:03.260Z,19.24
2022-08-01T21:40:33.139Z,19.20
2022-08-01T21:43:02.270Z,19.23
2022-08-01T21:45:30.465Z,19.39
2022-08-01T21:47:59.462Z,19.46
2022-08-01T21:50:32.314Z,19.45
2022-08-01T21:53:08.848Z,19.40
2022-08-01T21:55:53.956Z,19.46
2022-08-01T21:58:35.161Z,19.24
2022-08-01T22:01:09.182Z,19.24
2022-08-01T22:03:43.651Z,19.34
2022-08-01T22:06:14.435Z,19.08
2022-08-01T22:08:52.058Z,18.76
2022-08-01T22:11:21.813Z,18.72
2022-08-01T22:13:53.334Z,18.71
2022-08-01T22:16:21.493Z,18.61
2022-08-01T22:18:50.382Z,18.51
2022-08-01T22:21:20.087Z,18.44
2022-08-01T22:23:48.293Z,18.20
2022-08-01T22:26:16.135Z,17.94
2022-08-01T22:28:45.400Z,17.97
2022-08-01T22:31:17.044Z,18.30
2022-08-01T22:33:47.449Z,18.23
2022-08-01T22:36:15.636Z,18.55
2022-08-01T22:38:44.846Z,18.44
2022-08-01T22:41:16.318Z,18.31
2022-08-01T22:43:59.892Z,18.14
2022-08-01T22:46:36.001Z,18.10
2022-08-01T22:49:13.809Z,18.45
2022-08-01T22:51:55.776Z,18.51
2022-08-01T22:54:30.927Z,18.43
2022-08-01T22:57:05.717Z,18.38
2022-08-01T22:59:43.435Z,18.47
2022-08-01T23:02:17.113Z,18.47
2022-08-01T23:04:47.850Z,18.41
2022-08-01T23:07:20.832Z,18.48
2022-08-01T23:09:54.296Z,18.62
2022-08-01T23:12:25.173Z,18.68
2022-08-01T23:14:55.438Z,18.72
2022-08-01T23:17:27.296Z,18.88
2022-08-01T23:19:58.525Z,18.96
2022-08-01T23:22:30.365Z,18.81
2022-08-01T23:25:08.739Z,18.73
2022-08-01T23:27:52.003Z,18.45
2022-08-01T23:30:28.478Z,18.44
2022-08-01T23:32:56.395Z,18.34
2022-08-01T23:35:24.700Z,18.09
2022-08-01T23:37:52.903Z,18.07
2022-08-01T23:40:24.922Z,18.13
2022-08-01T23:42:54.589Z,18.04
2022-08-01T23:45:23.445Z,18.14
2022-08-01T23:47:51.394Z,18.30
2022-08-01T23:50:19.516Z,18.29
2022-08-01T23:52:50.978Z,18.30
2022-08-01T23:55:26.678Z,18.17
2022-08-01T23:58:07.147Z,18.11
